createdAt,value
2019-04-23T00:01:15.950Z,14.00
2019-04-23T00:02:05.290Z,14.04
2019-04-23T00:03:11.482Z,14.05
2019-04-23T00:04:07.260Z,14.00
2019-04-23T00:05:02.400Z,13.98
2019-04-23T00:06:15.581Z,13.97
2019-04-23T00:07:10.703Z,13.91
2019-04-23T00:10:16.615Z,13.97
2019-04-23T00:11:05.625Z,13.96
2019-04-23T00:12:16.559Z,13.96
2019-04-23T00:12:59.258Z,13.86
2019-04-23T00:14:07.108Z,13.78
2019-04-23T00:15:07.440Z,13.80
2019-04-23T00:16:23.811Z,13.73
2019-04-23T00:17:11.512Z,13.76
2019-04-23T00:18:10.129Z,13.78
2019-04-23T00:18:55.867Z,13.75
2019-04-23T00:20:10.070Z,13.78
2019-04-23T00:21:11.862Z,13.71
2019-04-23T00:22:05.508Z,13.83
2019-04-23T00:23:09.329Z,13.76
2019-04-23T00:24:10.066Z,13.80
2019-04-23T00:25:26.832Z,13.72
2019-04-23T00:26:02.676Z,13.71
2019-04-23T00:27:17.073Z,13.75
2019-04-23T00:28:06.539Z,13.71
2019-04-23T00:29:13.418Z,13.72
2019-04-23T00:30:00.956Z,13.64
2019-04-23T00:31:07.270Z,13.63
2019-04-23T00:32:08.461Z,13.71
2019-04-23T00:33:07.487Z,13.63
2019-04-23T00:34:02.229Z,13.53
2019-04-23T00:36:05.268Z,13.47
2019-04-23T00:37:12.922Z,13.47
2019-04-23T00:38:09.107Z,13.49
2019-04-23T00:39:06.013Z,13.45
2019-04-23T00:40:02.963Z,13.47
2019-04-23T00:41:02.869Z,13.45
2019-04-23T00:42:06.905Z,13.46
2019-04-23T00:43:02.020Z,13.47
2019-04-23T00:44:04.472Z,13.36
2019-04-23T00:45:00.473Z,13.40
2019-04-23T00:45:59.668Z,13.38
2019-04-23T00:47:01.276Z,13.38
2019-04-23T00:48:09.258Z,13.42
2019-04-23T00:49:05.815Z,13.23
2019-04-23T00:50:21.360Z,13.30
2019-04-23T00:50:59.080Z,13.26
2019-04-23T00:52:09.453Z,13.24
2019-04-23T00:53:05.976Z,13.27
2019-04-23T00:54:06.030Z,13.23
2019-04-23T00:56:11.802Z,13.16
2019-04-23T00:57:05.606Z,13.27
2019-04-23T00:58:08.601Z,13.23
2019-04-23T00:59:01.508Z,13.23
2019-04-23T01:00:14.024Z,13.29
2019-04-23T01:01:03.921Z,13.21
2019-04-23T01:02:00.721Z,13.26
2019-04-23T01:03:10.279Z,13.21
2019-04-23T01:04:18.570Z,13.16
2019-04-23T01:06:19.781Z,13.11
2019-04-23T01:07:09.815Z,13.09
2019-04-23T01:08:07.061Z,13.08
2019-04-23T01:09:02.425Z,13.06
2019-04-23T01:10:10.138Z,13.14
2019-04-23T01:11:02.101Z,12.98
2019-04-23T01:12:09.254Z,13.02
2019-04-23T01:13:11.285Z,13.08
2019-04-23T01:14:01.841Z,12.90
2019-04-23T01:15:07.488Z,13.01
2019-04-23T01:16:08.901Z,12.83
2019-04-23T01:17:08.545Z,12.84
2019-04-23T01:19:24.440Z,12.72
2019-04-23T01:20:01.927Z,12.66
2019-04-23T01:20:53.688Z,12.65
2019-04-23T01:21:43.298Z,12.72
2019-04-23T01:22:42.159Z,12.71
2019-04-23T01:23:47.140Z,12.72
2019-04-23T01:24:44.237Z,12.68
2019-04-23T01:25:52.288Z,12.66
2019-04-23T01:27:30.411Z,12.71
2019-04-23T01:28:09.395Z,12.59
2019-04-23T01:29:06.660Z,12.65
2019-04-23T01:30:10.027Z,12.58
2019-04-23T01:31:09.355Z,12.58
2019-04-23T01:32:12.110Z,12.54
2019-04-23T01:33:11.018Z,12.55
2019-04-23T01:34:15.059Z,12.53
2019-04-23T01:35:18.891Z,12.53
2019-04-23T01:36:20.635Z,12.59
2019-04-23T01:37:15.541Z,12.53
2019-04-23T01:38:06.089Z,12.48
2019-04-23T01:39:19.370Z,12.47
2019-04-23T01:40:13.582Z,12.47
2019-04-23T01:41:07.880Z,12.48
2019-04-23T01:42:11.836Z,12.47
2019-04-23T01:43:03.597Z,12.43
2019-04-23T01:44:04.829Z,12.43
2019-04-23T01:45:13.294Z,12.44
2019-04-23T01:46:08.317Z,12.44
2019-04-23T01:47:08.729Z,12.33
2019-04-23T01:48:18.200Z,12.28
2019-04-23T01:49:07.776Z,12.35
2019-04-23T01:51:02.454Z,12.41
2019-04-23T01:52:08.369Z,12.35
2019-04-23T01:54:04.157Z,12.25
2019-04-23T01:55:09.945Z,12.25
2019-04-23T01:56:04.842Z,12.23
2019-04-23T01:57:11.100Z,12.25
2019-04-23T01:58:36.549Z,12.23
2019-04-23T01:59:11.379Z,12.25
2019-04-23T02:01:06.529Z,12.18
2019-04-23T02:02:05.165Z,12.23
2019-04-23T02:03:09.402Z,12.22
2019-04-23T02:04:10.119Z,12.25
2019-04-23T02:05:15.778Z,12.15
2019-04-23T02:06:07.052Z,12.18
2019-04-23T02:07:06.467Z,12.14
2019-04-23T02:08:08.418Z,12.21
2019-04-23T02:09:10.063Z,12.13
2019-04-23T02:10:13.900Z,12.18
2019-04-23T02:11:10.242Z,12.22
2019-04-23T02:12:11.532Z,12.15
2019-04-23T02:13:11.348Z,12.17
2019-04-23T02:14:10.821Z,12.22
2019-04-23T02:15:11.524Z,12.13
2019-04-23T02:16:03.014Z,12.11
2019-04-23T02:17:10.247Z,12.13
2019-04-23T02:18:13.404Z,12.15
2019-04-23T02:19:09.972Z,12.15
2019-04-23T02:21:07.051Z,12.17
2019-04-23T02:22:06.860Z,12.10
2019-04-23T02:24:12.047Z,12.17
2019-04-23T02:25:13.377Z,12.07
2019-04-23T02:26:10.852Z,11.99
2019-04-23T02:27:12.170Z,12.07
2019-04-23T02:28:12.321Z,12.03
2019-04-23T02:30:26.641Z,12.00
2019-04-23T02:34:21.205Z,12.03
2019-04-23T02:35:29.270Z,12.04
2019-04-23T02:36:24.617Z,11.99
2019-04-23T02:37:45.741Z,12.04
2019-04-23T02:39:09.502Z,12.04
2019-04-23T02:45:16.011Z,12.04
2019-04-23T02:46:09.022Z,11.99
2019-04-23T02:47:16.853Z,12.05
2019-04-23T02:48:21.505Z,11.91
2019-04-23T02:49:20.484Z,11.97
2019-04-23T02:50:33.067Z,11.89
2019-04-23T02:51:10.910Z,11.96
2019-04-23T02:53:30.769Z,11.97
2019-04-23T02:56:24.089Z,11.85
2019-04-23T02:57:29.313Z,11.85
2019-04-23T02:58:22.127Z,11.82
2019-04-23T02:59:21.397Z,11.89
2019-04-23T03:00:18.888Z,11.88
2019-04-23T03:02:35.058Z,11.84
2019-04-23T03:03:13.685Z,11.89
2019-04-23T03:05:12.657Z,11.95
2019-04-23T03:07:33.307Z,11.87
2019-04-23T03:08:06.258Z,11.89
2019-04-23T03:09:18.890Z,11.97
2019-04-23T03:11:23.464Z,11.95
2019-04-23T03:12:18.488Z,11.87
2019-04-23T03:13:28.742Z,12.00
2019-04-23T03:15:25.978Z,11.99
2019-04-23T03:18:33.271Z,11.99
2019-04-23T03:19:11.311Z,12.00
2019-04-23T03:20:21.933Z,11.87
2019-04-23T03:22:28.702Z,11.97
2019-04-23T03:23:34.425Z,11.97
2019-04-23T03:25:23.459Z,11.95
2019-04-23T03:27:25.270Z,11.91
2019-04-23T03:28:22.985Z,11.93
2019-04-23T03:29:27.808Z,11.85
2019-04-23T03:30:16.119Z,11.82
2019-04-23T03:32:52.676Z,11.89
2019-04-23T03:35:36.082Z,11.82
2019-04-23T03:36:02.902Z,11.79
2019-04-23T03:36:45.134Z,11.77
2019-04-23T03:38:23.522Z,11.71
2019-04-23T03:39:14.685Z,11.70
2019-04-23T03:40:11.587Z,11.71
2019-04-23T03:43:17.032Z,11.74
2019-04-23T03:44:14.574Z,11.69
2019-04-23T03:47:18.722Z,11.70
2019-04-23T03:48:16.873Z,11.64
2019-04-23T03:49:09.804Z,11.66
2019-04-23T03:50:15.515Z,11.58
2019-04-23T03:51:11.578Z,11.58
2019-04-23T03:52:23.280Z,11.69
2019-04-23T03:53:17.208Z,11.62
2019-04-23T03:54:26.332Z,11.58
2019-04-23T03:58:12.180Z,11.59
2019-04-23T03:59:22.757Z,11.52
2019-04-23T04:00:33.197Z,11.56
2019-04-23T04:01:22.865Z,11.54
2019-04-23T04:03:27.015Z,11.54
2019-04-23T04:05:10.536Z,11.49
2019-04-23T04:07:21.964Z,11.58
2019-04-23T04:08:18.558Z,11.56
2019-04-23T04:09:28.604Z,11.56
2019-04-23T04:10:11.538Z,11.54
2019-04-23T04:12:27.388Z,11.45
2019-04-23T04:13:15.092Z,11.49
2019-04-23T04:14:21.093Z,11.43
2019-04-23T04:15:45.823Z,11.49
2019-04-23T04:16:26.536Z,11.45
2019-04-23T04:17:17.917Z,11.45
2019-04-23T04:19:32.035Z,11.38
2019-04-23T04:20:15.207Z,11.49
2019-04-23T04:21:20.536Z,11.43
2019-04-23T04:22:21.532Z,11.43
2019-04-23T04:23:25.210Z,11.41
2019-04-23T04:24:22.342Z,11.37
2019-04-23T04:25:15.929Z,11.34
2019-04-23T04:26:13.831Z,11.37
2019-04-23T04:30:10.797Z,11.31
2019-04-23T04:32:12.501Z,11.40
2019-04-23T04:33:29.776Z,11.36
2019-04-23T04:36:20.425Z,11.37
2019-04-23T04:38:30.244Z,11.38
2019-04-23T04:39:08.301Z,11.41
2019-04-23T04:40:18.224Z,11.33
2019-04-23T04:41:14.272Z,11.40
2019-04-23T04:42:12.227Z,11.46
2019-04-23T04:43:23.003Z,11.38
2019-04-23T04:45:22.266Z,11.37
2019-04-23T04:47:09.962Z,11.40
2019-04-23T04:48:09.881Z,11.51
2019-04-23T04:49:12.085Z,11.43
2019-04-23T04:50:04.781Z,11.43
2019-04-23T04:53:29.668Z,11.45
2019-04-23T04:54:21.551Z,11.51
2019-04-23T04:55:18.135Z,11.52
2019-04-23T04:56:30.309Z,11.43
2019-04-23T04:57:20.831Z,11.43
2019-04-23T04:58:12.715Z,11.48
2019-04-23T04:59:09.249Z,11.45
2019-04-23T05:00:32.927Z,11.49
2019-04-23T05:01:18.535Z,11.52
2019-04-23T05:05:38.049Z,11.61
2019-04-23T05:08:13.966Z,11.58
2019-04-23T05:09:31.809Z,11.64
2019-04-23T05:10:16.562Z,11.58
2019-04-23T05:14:05.872Z,11.66
2019-04-23T05:18:17.435Z,11.71
2019-04-23T05:22:06.954Z,11.79
2019-04-23T05:23:18.039Z,11.71
2019-04-23T05:25:04.193Z,11.76
2019-04-23T05:26:11.537Z,11.77
2019-04-23T05:27:02.964Z,11.70
2019-04-23T05:28:12.545Z,11.76
2019-04-23T05:29:03.781Z,11.80
2019-04-23T05:30:09.355Z,11.84
2019-04-23T05:31:05.826Z,11.89
2019-04-23T05:32:09.468Z,11.89
2019-04-23T05:33:12.946Z,11.88
2019-04-23T05:34:10.654Z,11.89
2019-04-23T05:35:09.949Z,11.95
2019-04-23T05:37:04.999Z,11.99
2019-04-23T05:38:19.011Z,11.97
2019-04-23T05:40:14.481Z,11.97
2019-04-23T05:41:10.129Z,12.03
2019-04-23T05:42:04.370Z,12.00
2019-04-23T05:43:03.265Z,12.07
2019-04-23T05:44:10.339Z,11.97
2019-04-23T05:45:06.115Z,12.04
2019-04-23T05:46:04.418Z,12.00
2019-04-23T05:47:13.259Z,12.08
2019-04-23T05:49:05.997Z,12.15
2019-04-23T05:50:14.116Z,12.07
2019-04-23T05:51:16.177Z,12.17
2019-04-23T05:52:12.026Z,12.18
2019-04-23T05:53:11.590Z,12.11
2019-04-23T05:54:09.110Z,12.14
2019-04-23T05:57:00.362Z,12.28
2019-04-23T05:58:14.130Z,12.26
2019-04-23T05:59:06.193Z,12.23
2019-04-23T06:00:10.683Z,12.28
2019-04-23T06:01:25.127Z,12.30
2019-04-23T06:02:09.192Z,12.40
2019-04-23T06:03:13.373Z,12.36
2019-04-23T06:04:12.918Z,12.35
2019-04-23T06:05:08.868Z,12.46
2019-04-23T06:06:10.766Z,12.47
2019-04-23T06:07:27.063Z,12.48
2019-04-23T06:08:28.773Z,12.47
2019-04-23T06:09:09.097Z,12.46
2019-04-23T06:10:06.446Z,12.50
2019-04-23T06:11:15.152Z,12.46
2019-04-23T06:12:10.060Z,12.59
2019-04-23T06:13:04.929Z,12.59
2019-04-23T06:15:05.611Z,12.66
2019-04-23T06:16:07.798Z,12.66
2019-04-23T06:17:08.573Z,12.72
2019-04-23T06:18:10.142Z,12.69
2019-04-23T06:19:09.738Z,12.77
2019-04-23T06:23:17.812Z,12.87
2019-04-23T06:24:15.026Z,12.84
2019-04-23T06:25:12.495Z,12.91
2019-04-23T06:27:08.729Z,12.87
2019-04-23T06:28:09.339Z,12.99
2019-04-23T06:29:16.244Z,12.95
2019-04-23T06:30:00.936Z,12.88
2019-04-23T06:31:13.830Z,12.93
2019-04-23T06:32:04.617Z,12.99
2019-04-23T06:33:06.917Z,13.02
2019-04-23T06:34:12.742Z,13.02
2019-04-23T06:35:06.343Z,13.05
2019-04-23T06:36:05.554Z,13.09
2019-04-23T06:37:05.271Z,13.11
2019-04-23T06:39:00.229Z,13.23
2019-04-23T06:40:08.329Z,13.19
2019-04-23T06:41:09.982Z,13.35
2019-04-23T06:42:03.961Z,13.24
2019-04-23T06:43:06.564Z,13.42
2019-04-23T06:44:18.078Z,13.43
2019-04-23T06:45:00.560Z,13.47
2019-04-23T06:46:09.966Z,13.46
2019-04-23T06:47:03.526Z,13.54
2019-04-23T06:48:09.179Z,13.58
2019-04-23T06:49:10.900Z,13.54
2019-04-23T06:49:59.993Z,13.63
2019-04-23T06:51:14.591Z,13.68
2019-04-23T06:52:59.527Z,13.83
2019-04-23T06:54:06.800Z,13.80
2019-04-23T06:55:09.107Z,13.76
2019-04-23T06:58:15.699Z,13.85
2019-04-23T06:59:07.622Z,13.96
2019-04-23T07:00:11.845Z,13.90
2019-04-23T07:01:06.693Z,13.93
2019-04-23T07:02:17.178Z,13.96
2019-04-23T07:03:11.191Z,14.03
2019-04-23T07:04:05.561Z,14.04
2019-04-23T07:05:12.187Z,14.11
2019-04-23T07:06:19.089Z,14.18
2019-04-23T07:08:02.972Z,14.23
2019-04-23T07:10:07.396Z,14.33
2019-04-23T07:11:11.095Z,14.37
2019-04-23T07:12:05.269Z,14.45
2019-04-23T07:13:06.350Z,14.48
2019-04-23T07:13:58.391Z,14.49
2019-04-23T07:16:03.442Z,14.52
2019-04-23T07:17:03.824Z,14.49
2019-04-23T07:18:03.835Z,14.53
2019-04-23T07:19:13.917Z,14.58
2019-04-23T07:20:00.193Z,14.67
2019-04-23T07:21:07.929Z,14.56
2019-04-23T07:23:04.859Z,14.63
2019-04-23T07:24:05.372Z,14.58
2019-04-23T07:25:18.901Z,14.56
2019-04-23T07:26:09.290Z,14.67
2019-04-23T07:27:03.315Z,14.71
2019-04-23T07:28:09.930Z,14.71
2019-04-23T07:29:08.961Z,14.66
2019-04-23T07:30:08.615Z,14.58
2019-04-23T07:31:07.478Z,14.63
2019-04-23T07:32:05.328Z,14.56
2019-04-23T07:33:04.201Z,14.55
2019-04-23T07:35:10.395Z,14.58
2019-04-23T07:36:08.604Z,14.64
2019-04-23T07:37:10.804Z,14.82
2019-04-23T07:38:13.392Z,14.74
2019-04-23T07:41:05.686Z,14.86
2019-04-23T07:42:09.258Z,14.77
2019-04-23T07:44:14.300Z,14.77
2019-04-23T07:46:14.717Z,14.93
2019-04-23T07:47:19.383Z,14.96
2019-04-23T07:48:12.407Z,14.95
2019-04-23T07:49:08.803Z,15.03
2019-04-23T07:50:19.102Z,14.97
2019-04-23T07:50:57.681Z,15.01
2019-04-23T07:52:13.234Z,15.05
2019-04-23T07:53:13.325Z,15.03
2019-04-23T07:54:08.039Z,14.97
2019-04-23T07:55:06.769Z,15.10
2019-04-23T07:57:08.936Z,15.08
2019-04-23T07:58:14.420Z,15.15
2019-04-23T07:59:07.257Z,15.26
2019-04-23T08:00:30.987Z,15.11
2019-04-23T08:02:08.133Z,15.23
2019-04-23T08:03:13.004Z,15.27
2019-04-23T08:04:01.919Z,15.22
2019-04-23T08:06:10.121Z,15.22
2019-04-23T08:07:10.969Z,15.23
2019-04-23T08:08:03.554Z,15.30
2019-04-23T08:09:03.601Z,15.22
2019-04-23T08:11:27.527Z,15.23
2019-04-23T08:12:13.799Z,15.23
2019-04-23T08:13:08.500Z,15.23
2019-04-23T08:14:03.425Z,15.36
2019-04-23T08:15:09.142Z,15.29
2019-04-23T08:16:08.923Z,15.27
2019-04-23T08:17:07.108Z,15.40
2019-04-23T08:18:07.241Z,15.26
2019-04-23T08:19:24.425Z,15.35
2019-04-23T08:20:24.721Z,15.35
2019-04-23T08:21:02.003Z,15.30
2019-04-23T08:22:18.698Z,15.50
2019-04-23T08:23:06.766Z,15.44
2019-04-23T08:25:08.430Z,15.56
2019-04-23T08:26:17.210Z,15.65
2019-04-23T08:27:07.441Z,15.63
2019-04-23T08:28:05.879Z,15.69
2019-04-23T08:30:00.497Z,15.76
2019-04-23T08:31:08.552Z,15.76
2019-04-23T08:32:06.918Z,15.73
2019-04-23T08:33:03.975Z,15.63
2019-04-23T08:34:16.770Z,15.65
2019-04-23T08:35:04.375Z,15.70
2019-04-23T08:36:04.301Z,15.76
2019-04-23T08:39:04.209Z,15.76
2019-04-23T08:40:01.896Z,15.76
2019-04-23T08:41:21.517Z,15.69
2019-04-23T08:42:33.662Z,15.72
2019-04-23T08:43:11.025Z,15.76
2019-04-23T08:44:06.917Z,15.76
2019-04-23T08:45:13.286Z,15.69
2019-04-23T08:46:10.631Z,15.76
2019-04-23T08:47:43.676Z,15.81
2019-04-23T08:48:21.018Z,15.80
2019-04-23T08:49:03.303Z,15.72
2019-04-23T08:49:59.321Z,15.73
2019-04-23T08:51:10.789Z,15.77
2019-04-23T08:52:10.525Z,15.80
2019-04-23T08:53:21.083Z,15.80
2019-04-23T08:54:03.005Z,15.81
2019-04-23T08:55:11.138Z,15.83
2019-04-23T08:58:06.045Z,15.91
2019-04-23T08:59:11.012Z,15.91
2019-04-23T09:00:02.767Z,16.02
2019-04-23T09:01:05.553Z,16.08
2019-04-23T09:03:04.656Z,16.26
2019-04-23T09:04:00.785Z,16.21
2019-04-23T09:06:15.966Z,16.36
2019-04-23T09:07:12.818Z,16.36
2019-04-23T09:08:07.136Z,16.33
2019-04-23T09:09:06.947Z,16.37
2019-04-23T09:10:09.707Z,16.33
2019-04-23T09:11:58.010Z,16.47
2019-04-23T09:13:27.095Z,16.40
2019-04-23T09:15:08.811Z,16.39
2019-04-23T09:16:07.298Z,16.55
2019-04-23T09:17:04.918Z,16.49
2019-04-23T09:19:08.892Z,16.42
2019-04-23T09:21:05.852Z,16.46
2019-04-23T09:22:09.006Z,16.52
2019-04-23T09:22:55.141Z,16.49
2019-04-23T09:24:03.364Z,16.49
2019-04-23T09:26:24.634Z,16.58
2019-04-23T09:27:09.377Z,16.52
2019-04-23T09:28:17.742Z,16.58
2019-04-23T09:29:10.184Z,16.64
2019-04-23T09:30:07.055Z,16.59
2019-04-23T09:31:14.578Z,16.61
2019-04-23T09:33:09.673Z,16.73
2019-04-23T09:34:04.963Z,16.69
2019-04-23T09:35:15.589Z,16.74
2019-04-23T09:36:08.265Z,16.77
2019-04-23T09:37:59.692Z,16.84
2019-04-23T09:39:08.337Z,16.77
2019-04-23T09:40:09.009Z,16.84
2019-04-23T09:42:04.906Z,16.69
2019-04-23T09:44:23.195Z,16.72
2019-04-23T09:46:04.691Z,16.95
2019-04-23T09:47:08.484Z,16.82
2019-04-23T09:48:01.444Z,16.91
2019-04-23T09:49:11.694Z,16.90
2019-04-23T09:50:08.398Z,16.91
2019-04-23T09:51:04.955Z,16.98
2019-04-23T09:52:11.160Z,16.95
2019-04-23T09:53:11.537Z,16.94
2019-04-23T09:54:03.015Z,16.88
2019-04-23T09:56:01.187Z,16.99
2019-04-23T09:56:57.057Z,16.95
2019-04-23T09:58:07.841Z,17.07
2019-04-23T09:59:08.855Z,16.94
2019-04-23T10:00:10.716Z,17.04
2019-04-23T10:01:09.841Z,17.07
2019-04-23T10:01:54.332Z,17.10
2019-04-23T10:02:53.363Z,17.07
2019-04-23T10:03:52.096Z,17.20
2019-04-23T10:04:51.873Z,17.16
2019-04-23T10:05:46.794Z,17.17
2019-04-23T10:06:39.036Z,17.22
2019-04-23T10:07:47.168Z,17.25
2019-04-23T10:08:41.988Z,17.24
2019-04-23T10:09:36.458Z,17.22
2019-04-23T10:10:36.363Z,17.17
2019-04-23T10:11:35.137Z,17.20
2019-04-23T10:12:35.728Z,17.22
2019-04-23T10:13:36.400Z,17.19
2019-04-23T10:14:36.613Z,17.20
2019-04-23T10:15:40.108Z,17.20
2019-04-23T10:16:37.006Z,17.09
2019-04-23T10:17:36.107Z,17.22
2019-04-23T10:18:35.283Z,17.24
2019-04-23T10:19:35.149Z,17.25
2019-04-23T10:20:36.293Z,17.22
2019-04-23T10:21:35.361Z,17.24
2019-04-23T10:22:37.634Z,17.28
2019-04-23T10:23:34.999Z,17.30
2019-04-23T10:24:35.184Z,17.34
2019-04-23T10:25:36.059Z,17.35
2019-04-23T10:26:35.022Z,17.37
2019-04-23T10:27:35.133Z,17.37
2019-04-23T10:28:35.903Z,17.38
2019-04-23T10:29:36.365Z,17.39
2019-04-23T10:30:36.479Z,17.38
2019-04-23T10:31:35.628Z,17.37
2019-04-23T10:32:35.874Z,17.38
2019-04-23T10:33:34.882Z,17.47
2019-04-23T10:34:46.009Z,17.65
2019-04-23T10:35:46.114Z,17.63
2019-04-23T10:36:37.932Z,17.63
2019-04-23T10:37:46.077Z,17.63
2019-04-23T10:38:36.382Z,17.59
2019-04-23T10:39:37.874Z,17.59
2019-04-23T10:40:39.880Z,17.49
2019-04-23T10:41:37.934Z,17.59
2019-04-23T10:42:38.502Z,17.59
2019-04-23T10:43:39.432Z,17.63
2019-04-23T10:44:37.357Z,17.62
2019-04-23T10:45:44.645Z,17.65
2019-04-23T10:47:06.734Z,17.66
2019-04-23T10:48:17.695Z,17.59
2019-04-23T10:49:29.490Z,17.59
2019-04-23T10:50:57.180Z,17.69
2019-04-23T10:52:21.925Z,17.75
2019-04-23T10:53:13.244Z,17.76
2019-04-23T10:54:17.839Z,17.78
2019-04-23T10:55:00.669Z,17.72
2019-04-23T10:56:00.947Z,17.71
2019-04-23T10:57:01.589Z,17.78
2019-04-23T10:58:01.920Z,17.76
2019-04-23T10:59:03.196Z,17.84
2019-04-23T10:59:53.656Z,17.86
2019-04-23T11:01:04.573Z,17.84
2019-04-23T11:02:26.809Z,17.90
2019-04-23T11:03:14.132Z,17.87
2019-04-23T11:04:21.702Z,17.94
2019-04-23T11:05:08.844Z,17.96
2019-04-23T11:06:06.703Z,18.06
2019-04-23T11:07:25.883Z,18.02
2019-04-23T11:08:02.219Z,18.06
2019-04-23T11:09:23.531Z,18.02
2019-04-23T11:10:13.126Z,18.11
2019-04-23T11:11:07.701Z,18.06
2019-04-23T11:12:14.390Z,18.03
2019-04-23T11:13:07.797Z,18.01
2019-04-23T11:14:13.239Z,18.05
2019-04-23T11:15:18.352Z,18.03
2019-04-23T11:17:27.058Z,18.02
2019-04-23T11:17:59.521Z,18.06
2019-04-23T11:20:15.778Z,17.93
2019-04-23T11:21:09.634Z,17.97
2019-04-23T11:22:17.457Z,18.03
2019-04-23T11:22:57.484Z,18.05
2019-04-23T11:24:10.963Z,18.13
2019-04-23T11:25:15.532Z,18.21
2019-04-23T11:26:05.563Z,18.13
2019-04-23T11:27:10.351Z,18.13
2019-04-23T11:28:05.639Z,18.15
2019-04-23T11:29:16.349Z,18.20
2019-04-23T11:30:15.025Z,18.15
2019-04-23T11:31:09.373Z,18.18
2019-04-23T11:32:19.611Z,18.26
2019-04-23T11:34:13.376Z,18.27
2019-04-23T11:35:11.523Z,18.28
2019-04-23T11:37:14.492Z,18.41
2019-04-23T11:38:58.531Z,18.46
2019-04-23T11:40:08.922Z,18.52
2019-04-23T11:41:00.035Z,18.51
2019-04-23T11:42:14.572Z,18.54
2019-04-23T11:43:09.355Z,18.56
2019-04-23T11:44:09.873Z,18.61
2019-04-23T11:45:06.977Z,18.58
2019-04-23T11:53:00.324Z,18.68
2019-04-23T11:54:07.460Z,18.67
2019-04-23T11:55:22.773Z,18.64
2019-04-23T11:57:22.176Z,18.70
2019-04-23T11:59:10.239Z,18.70
2019-04-23T12:00:06.104Z,18.68
2019-04-23T12:01:10.965Z,18.67
2019-04-23T12:01:56.493Z,18.79
2019-04-23T12:03:07.706Z,18.75
2019-04-23T12:04:14.981Z,18.83
2019-04-23T12:05:17.575Z,18.85
2019-04-23T12:06:12.138Z,18.85
2019-04-23T12:08:07.346Z,18.94
2019-04-23T12:08:56.638Z,18.93
2019-04-23T12:10:07.537Z,18.98
2019-04-23T12:11:36.144Z,19.05
2019-04-23T12:12:03.840Z,18.98
2019-04-23T12:13:10.562Z,19.13
2019-04-23T12:14:15.568Z,19.12
2019-04-23T12:15:09.680Z,19.09
2019-04-23T12:16:10.528Z,19.20
2019-04-23T12:18:14.823Z,19.26
2019-04-23T12:19:25.411Z,19.24
2019-04-23T12:20:56.811Z,19.20
2019-04-23T12:22:15.187Z,19.27
2019-04-23T12:23:12.299Z,19.19
2019-04-23T12:24:17.110Z,19.27
2019-04-23T12:26:03.740Z,19.38
2019-04-23T12:27:07.993Z,19.50
2019-04-23T12:27:59.252Z,19.32
2019-04-23T12:29:27.815Z,19.44
2019-04-23T12:30:00.817Z,19.39
2019-04-23T12:30:57.351Z,19.41
2019-04-23T12:32:14.085Z,19.37
2019-04-23T12:33:03.154Z,19.41
2019-04-23T12:34:07.247Z,19.38
2019-04-23T12:35:07.189Z,19.50
2019-04-23T12:36:13.677Z,19.50
2019-04-23T12:37:09.222Z,19.53
2019-04-23T12:38:03.318Z,19.53
2019-04-23T12:39:04.364Z,19.67
2019-04-23T12:40:11.549Z,19.59
2019-04-23T12:41:24.242Z,19.62
2019-04-23T12:42:19.768Z,19.63
2019-04-23T12:43:04.934Z,19.67
2019-04-23T12:44:03.622Z,19.78
2019-04-23T12:45:57.611Z,19.84
2019-04-23T12:47:25.385Z,19.93
2019-04-23T12:48:26.289Z,19.96
2019-04-23T12:49:06.883Z,20.00
2019-04-23T12:50:18.991Z,20.08
2019-04-23T12:51:26.597Z,20.00
2019-04-23T12:52:05.110Z,20.07
2019-04-23T12:53:07.130Z,20.11
2019-04-23T12:54:12.736Z,20.07
2019-04-23T12:55:15.089Z,20.07
2019-04-23T12:56:03.685Z,20.11
2019-04-23T12:57:14.775Z,20.02
2019-04-23T12:58:01.335Z,20.08
2019-04-23T12:58:55.609Z,20.07
2019-04-23T13:00:05.271Z,20.04
2019-04-23T13:01:02.173Z,20.14
2019-04-23T13:02:03.590Z,20.05
2019-04-23T13:03:18.952Z,20.04
2019-04-23T13:03:59.625Z,20.02
2019-04-23T13:05:00.491Z,20.08
2019-04-23T13:05:56.880Z,19.99
2019-04-23T13:07:09.140Z,20.07
2019-04-23T13:08:02.053Z,20.07
2019-04-23T13:09:07.292Z,20.11
2019-04-23T13:11:10.291Z,20.09
2019-04-23T13:12:11.286Z,20.08
2019-04-23T13:13:09.312Z,20.08
2019-04-23T13:15:05.602Z,20.08
2019-04-23T13:16:07.357Z,20.12
2019-04-23T13:19:01.381Z,20.23
2019-04-23T13:20:00.275Z,20.11
2019-04-23T13:21:14.295Z,20.12
2019-04-23T13:23:58.812Z,20.12
2019-04-23T13:25:05.381Z,20.18
2019-04-23T13:25:57.032Z,20.22
2019-04-23T13:27:04.476Z,20.23
2019-04-23T13:29:01.193Z,20.17
2019-04-23T13:32:00.886Z,20.29
2019-04-23T13:33:08.180Z,20.41
2019-04-23T13:33:58.349Z,20.36
2019-04-23T13:35:22.081Z,20.34
2019-04-23T13:37:04.540Z,20.36
2019-04-23T13:38:07.642Z,20.33
2019-04-23T13:39:03.304Z,20.41
2019-04-23T13:40:00.505Z,20.39
2019-04-23T13:42:08.147Z,20.37
2019-04-23T13:43:13.967Z,20.41
2019-04-23T13:43:54.834Z,20.32
2019-04-23T13:45:07.354Z,20.30
2019-04-23T13:46:06.986Z,20.30
2019-04-23T13:47:17.861Z,20.29
2019-04-23T13:49:01.818Z,20.26
2019-04-23T13:50:09.664Z,20.33
2019-04-23T13:52:05.933Z,20.33
2019-04-23T13:53:29.101Z,20.33
2019-04-23T13:53:58.818Z,20.33
2019-04-23T13:56:04.017Z,20.29
2019-04-23T13:57:33.410Z,20.27
2019-04-23T13:59:09.524Z,20.32
2019-04-23T14:00:25.032Z,20.30
2019-04-23T14:02:03.248Z,20.42
2019-04-23T14:03:28.589Z,20.30
2019-04-23T14:04:04.253Z,20.36
2019-04-23T14:05:02.122Z,20.41
2019-04-23T14:06:09.059Z,20.32
2019-04-23T14:07:05.241Z,20.42
2019-04-23T14:08:14.196Z,20.33
2019-04-23T14:09:04.746Z,20.39
2019-04-23T14:10:11.909Z,20.34
2019-04-23T14:11:02.933Z,20.30
2019-04-23T14:12:04.441Z,20.33
2019-04-23T14:13:15.179Z,20.37
2019-04-23T14:15:04.469Z,20.37
2019-04-23T14:16:03.790Z,20.42
2019-04-23T14:17:08.423Z,20.33
2019-04-23T14:18:19.071Z,20.34
2019-04-23T14:20:02.995Z,20.44
2019-04-23T14:21:05.994Z,20.44
2019-04-23T14:22:08.877Z,20.50
2019-04-23T14:26:15.915Z,20.46
2019-04-23T14:27:09.416Z,20.50
2019-04-23T14:28:14.412Z,20.46
2019-04-23T14:28:58.860Z,20.44
2019-04-23T14:30:26.655Z,20.42
2019-04-23T14:33:15.468Z,20.37
2019-04-23T14:35:10.957Z,20.46
2019-04-23T14:36:00.505Z,20.46
2019-04-23T14:37:07.501Z,20.34
2019-04-23T14:38:15.876Z,20.41
2019-04-23T14:39:21.664Z,20.41
2019-04-23T14:40:01.588Z,20.41
2019-04-23T14:41:09.907Z,20.32
2019-04-23T14:42:14.093Z,20.34
2019-04-23T14:43:08.954Z,20.41
2019-04-23T14:44:12.903Z,20.34
2019-04-23T14:45:13.502Z,20.36
2019-04-23T14:46:27.120Z,20.37
2019-04-23T14:47:07.449Z,20.36
2019-04-23T14:50:22.914Z,20.32
2019-04-23T14:51:11.715Z,20.19
2019-04-23T14:54:06.233Z,20.30
2019-04-23T14:56:00.428Z,20.26
2019-04-23T14:57:11.246Z,20.19
2019-04-23T14:58:10.501Z,20.29
2019-04-23T15:00:01.626Z,20.27
2019-04-23T15:01:16.177Z,20.30
2019-04-23T15:02:16.071Z,20.30
2019-04-23T15:03:55.648Z,20.39
2019-04-23T15:05:03.693Z,20.46
2019-04-23T15:06:12.554Z,20.34
2019-04-23T15:07:08.650Z,20.34
2019-04-23T15:08:06.168Z,20.34
2019-04-23T15:09:16.665Z,20.41
2019-04-23T15:10:18.654Z,20.46
2019-04-23T15:11:19.175Z,20.36
2019-04-23T15:12:13.861Z,20.41
2019-04-23T15:12:59.668Z,20.48
2019-04-23T15:14:05.346Z,20.41
2019-04-23T15:15:09.671Z,20.39
2019-04-23T15:16:07.782Z,20.41
2019-04-23T15:16:59.798Z,20.34
2019-04-23T15:18:07.453Z,20.36
2019-04-23T15:19:10.664Z,20.33
2019-04-23T15:20:20.333Z,20.41
2019-04-23T15:21:19.180Z,20.46
2019-04-23T15:24:03.995Z,20.50
2019-04-23T15:25:10.737Z,20.48
2019-04-23T15:26:51.036Z,20.44
2019-04-23T15:28:01.970Z,20.44
2019-04-23T15:28:06.664Z,20.46
2019-04-23T15:28:43.691Z,20.48
2019-04-23T15:29:56.449Z,20.46
2019-04-23T15:31:02.339Z,20.44
2019-04-23T15:32:03.186Z,20.53
2019-04-23T15:34:10.728Z,20.42
2019-04-23T15:35:05.134Z,20.46
2019-04-23T15:36:22.610Z,20.49
2019-04-23T15:37:13.374Z,20.46
2019-04-23T15:38:24.799Z,20.48
2019-04-23T15:39:12.340Z,20.50
2019-04-23T15:40:08.069Z,20.44
2019-04-23T15:41:07.402Z,20.44
2019-04-23T15:42:08.106Z,20.46
2019-04-23T15:43:04.766Z,20.48
2019-04-23T15:44:05.656Z,20.48
2019-04-23T15:45:01.300Z,20.52
2019-04-23T15:46:02.594Z,20.44
2019-04-23T15:47:05.035Z,20.50
2019-04-23T15:48:06.503Z,20.49